sensor_id;sensor_type;location;lat;lon;timestamp;pressure;altitude;pressure_sealevel;temperature;humidity
65329;BME280;51941;52.210;5.158;2023-04-05T00:01:56;102492.63;;;3.84;86.53
65329;BME280;51941;52.210;5.158;2023-04-05T00:04:22;102488.66;;;3.80;86.39
65329;BME280;51941;52.210;5.158;2023-04-05T00:06:49;102494.88;;;3.79;86.25
65329;BME280;51941;52.210;5.158;2023-04-05T00:09:17;102484.84;;;3.74;86.58
65329;BME280;51941;52.210;5.158;2023-04-05T00:11:44;102485.25;;;3.70;86.78
65329;BME280;51941;52.210;5.158;2023-04-05T00:14:11;102484.56;;;3.68;87.08
65329;BME280;51941;52.210;5.158;2023-04-05T00:16:40;102486.66;;;3.64;87.41
65329;BME280;51941;52.210;5.158;2023-04-05T00:19:06;102472.94;;;3.52;87.18
65329;BME280;51941;52.210;5.158;2023-04-05T00:21:33;102483.78;;;3.58;87.15
65329;BME280;51941;52.210;5.158;2023-04-05T00:24:00;102484.09;;;3.54;87.29
65329;BME280;51941;52.210;5.158;2023-04-05T00:26:27;102483.41;;;3.52;87.34
65329;BME280;51941;52.210;5.158;2023-04-05T00:28:56;102442.72;;;3.31;87.61
65329;BME280;51941;52.210;5.158;2023-04-05T00:31:22;102476.81;;;3.48;87.42
65329;BME280;51941;52.210;5.158;2023-04-05T00:33:50;102475.44;;;3.44;87.32
65329;BME280;51941;52.210;5.158;2023-04-05T00:36:19;102470.34;;;3.43;87.12
65329;BME280;51941;52.210;5.158;2023-04-05T00:38:46;102464.72;;;3.38;87.19
65329;BME280;51941;52.210;5.158;2023-04-05T00:41:14;102464.03;;;3.36;87.36
65329;BME280;51941;52.210;5.158;2023-04-05T00:43:41;102463.50;;;3.32;87.53
65329;BME280;51941;52.210;5.158;2023-04-05T00:46:08;102460.63;;;3.26;87.57
65329;BME280;51941;52.210;5.158;2023-04-05T00:48:35;102464.75;;;3.28;87.70
65329;BME280;51941;52.210;5.158;2023-04-05T00:51:03;102464.34;;;3.23;88.16
65329;BME280;51941;52.210;5.158;2023-04-05T00:53:34;102456.94;;;3.19;88.79
65329;BME280;51941;52.210;5.158;2023-04-05T00:56:02;102454.47;;;3.17;88.27
65329;BME280;51941;52.210;5.158;2023-04-05T00:58:29;102462.59;;;3.14;88.58
65329;BME280;51941;52.210;5.158;2023-04-05T01:01:01;102452.44;;;3.11;88.62
65329;BME280;51941;52.210;5.158;2023-04-05T01:03:31;102449.25;;;3.07;89.04
65329;BME280;51941;52.210;5.158;2023-04-05T01:06:07;102452.97;;;3.05;88.88
65329;BME280;51941;52.210;5.158;2023-04-05T01:08:41;102446.25;;;3.02;88.67
65329;BME280;51941;52.210;5.158;2023-04-05T01:11:12;102448.31;;;2.99;88.77
65329;BME280;51941;52.210;5.158;2023-04-05T01:13:38;102444.19;;;2.96;88.18
65329;BME280;51941;52.210;5.158;2023-04-05T01:16:05;102442.00;;;2.92;89.03
65329;BME280;51941;52.210;5.158;2023-04-05T01:18:32;102437.59;;;2.92;88.82
65329;BME280;51941;52.210;5.158;2023-04-05T01:21:13;102442.13;;;2.90;88.74
65329;BME280;51941;52.210;5.158;2023-04-05T01:23:50;102439.78;;;2.87;89.55
65329;BME280;51941;52.210;5.158;2023-04-05T01:26:42;102440.09;;;2.84;89.87
65329;BME280;51941;52.210;5.158;2023-04-05T01:29:45;102438.84;;;2.78;90.58
65329;BME280;51941;52.210;5.158;2023-04-05T01:32:26;102415.63;;;2.66;90.52
65329;BME280;51941;52.210;5.158;2023-04-05T01:35:02;102371.66;;;2.32;90.45
65329;BME280;51941;52.210;5.158;2023-04-05T01:37:33;102430.34;;;2.67;91.18
65329;BME280;51941;52.210;5.158;2023-04-05T01:40:00;102417.41;;;2.65;90.79
65329;BME280;51941;52.210;5.158;2023-04-05T01:42:30;102429.78;;;2.63;91.16
65329;BME280;51941;52.210;5.158;2023-04-05T01:44:58;102423.22;;;2.59;91.74
65329;BME280;51941;52.210;5.158;2023-04-05T01:47:25;102419.91;;;2.57;91.18
65329;BME280;51941;52.210;5.158;2023-04-05T01:49:52;102422.66;;;2.56;90.94
65329;BME280;51941;52.210;5.158;2023-04-05T01:52:20;102419.47;;;2.52;91.40
65329;BME280;51941;52.210;5.158;2023-04-05T01:54:48;102415.38;;;2.50;91.84
65329;BME280;51941;52.210;5.158;2023-04-05T01:57:15;102418.13;;;2.48;92.10
65329;BME280;51941;52.210;5.158;2023-04-05T01:59:42;102411.50;;;2.44;92.05
65329;BME280;51941;52.210;5.158;2023-04-05T02:02:10;102413.47;;;2.42;92.89
65329;BME280;51941;52.210;5.158;2023-04-05T02:04:36;102411.81;;;2.41;93.47
65329;BME280;51941;52.210;5.158;2023-04-05T02:07:03;102401.75;;;2.36;93.17
65329;BME280;51941;52.210;5.158;2023-04-05T02:09:30;102408.75;;;2.36;93.50
65329;BME280;51941;52.210;5.158;2023-04-05T02:11:56;102407.28;;;2.33;93.64
65329;BME280;51941;52.210;5.158;2023-04-05T02:14:23;102404.94;;;2.30;93.67
65329;BME280;51941;52.210;5.158;2023-04-05T02:16:50;102398.19;;;2.28;93.92
65329;BME280;51941;52.210;5.158;2023-04-05T02:19:22;102398.47;;;2.25;93.84
65329;BME280;51941;52.210;5.158;2023-04-05T02:21:50;102392.13;;;2.18;94.50
65329;BME280;51941;52.210;5.158;2023-04-05T02:24:18;102392.00;;;2.19;94.24
65329;BME280;51941;52.210;5.158;2023-04-05T02:26:44;102390.47;;;2.17;94.75
65329;BME280;51941;52.210;5.158;2023-04-05T02:29:11;102386.38;;;2.14;94.70
65329;BME280;51941;52.210;5.158;2023-04-05T02:31:38;102387.59;;;2.10;94.81
65329;BME280;51941;52.210;5.158;2023-04-05T02:34:04;102391.31;;;2.08;95.48
65329;BME280;51941;52.210;5.158;2023-04-05T02:36:37;102390.63;;;2.06;95.75
65329;BME280;51941;52.210;5.158;2023-04-05T02:39:05;102391.72;;;2.03;96.75
65329;BME280;51941;52.210;5.158;2023-04-05T02:41:32;102378.25;;;1.98;96.05
65329;BME280;51941;52.210;5.158;2023-04-05T02:43:58;102381.00;;;1.96;96.05
65329;BME280;51941;52.210;5.158;2023-04-05T02:46:28;102378.53;;;1.95;96.20
65329;BME280;51941;52.210;5.158;2023-04-05T02:48:56;102371.38;;;1.87;95.98
65329;BME280;51941;52.210;5.158;2023-04-05T02:51:26;102377.28;;;1.89;96.75
65329;BME280;51941;52.210;5.158;2023-04-05T02:53:55;102369.72;;;1.86;96.57
65329;BME280;51941;52.210;5.158;2023-04-05T02:56:21;102371.63;;;1.84;97.10
65329;BME280;51941;52.210;5.158;2023-04-05T02:58:50;102373.53;;;1.82;97.62
65329;BME280;51941;52.210;5.158;2023-04-05T03:01:22;102365.19;;;1.79;98.07
65329;BME280;51941;52.210;5.158;2023-04-05T03:03:48;102359.13;;;1.78;98.15
65329;BME280;51941;52.210;5.158;2023-04-05T03:06:15;102366.25;;;1.76;99.11
65329;BME280;51941;52.210;5.158;2023-04-05T03:08:46;102362.97;;;1.74;99.46
65329;BME280;51941;52.210;5.158;2023-04-05T03:11:18;102358.03;;;1.71;100.00
65329;BME280;51941;52.210;5.158;2023-04-05T03:13:49;102353.75;;;1.70;100.00
65329;BME280;51941;52.210;5.158;2023-04-05T03:16:35;102354.84;;;1.68;100.00
65329;BME280;51941;52.210;5.158;2023-04-05T03:19:09;102351.53;;;1.65;100.00
65329;BME280;51941;52.210;5.158;2023-04-05T03:21:41;102352.50;;;1.64;100.00
65329;BME280;51941;52.210;5.158;2023-04-05T03:24:21;102355.28;;;1.63;99.76
65329;BME280;51941;52.210;5.158;2023-04-05T03:26:50;102357.19;;;1.61;99.53
65329;BME280;51941;52.210;5.158;2023-04-05T03:29:20;102343.44;;;1.59;100.00
65329;BME280;51941;52.210;5.158;2023-04-05T03:31:49;102345.34;;;1.57;100.00
65329;BME280;51941;52.210;5.158;2023-04-05T03:34:19;102341.91;;;1.56;100.00
65329;BME280;51941;52.210;5.158;2023-04-05T03:36:48;102343.03;;;1.54;100.00
65329;BME280;51941;52.210;5.158;2023-04-05T03:39:38;102344.13;;;1.51;100.00
65329;BME280;51941;52.210;5.158;2023-04-05T03:42:06;102344.50;;;1.47;100.00
65329;BME280;51941;52.210;5.158;2023-04-05T03:44:33;102344.50;;;1.47;100.00
65329;BME280;51941;52.210;5.158;2023-04-05T03:47:00;102344.66;;;1.45;100.00
65329;BME280;51941;52.210;5.158;2023-04-05T03:49:28;102344.78;;;1.44;100.00
65329;BME280;51941;52.210;5.158;2023-04-05T03:51:55;102344.91;;;1.42;100.00
65329;BME280;51941;52.210;5.158;2023-04-05T03:54:22;102343.53;;;1.38;100.00
65329;BME280;51941;52.210;5.158;2023-04-05T03:56:54;102346.41;;;1.35;100.00
65329;BME280;51941;52.210;5.158;2023-04-05T03:59:23;102337.59;;;1.26;100.00
65329;BME280;51941;52.210;5.158;2023-04-05T04:01:50;102361.38;;;1.33;100.00
65329;BME280;51941;52.210;5.158;2023-04-05T04:04:18;102353.66;;;1.32;100.00
65329;BME280;51941;52.210;5.158;2023-04-05T04:06:50;102352.00;;;1.31;100.00
65329;BME280;51941;52.210;5.158;2023-04-05T04:09:21;102353.97;;;1.29;100.00
65329;BME280;51941;52.210;5.158;2023-04-05T04:11:48;102351.47;;;1.27;100.00
65329;BME280;51941;52.210;5.158;2023-04-05T04:14:19;102354.34;;;1.24;100.00
65329;BME280;51941;52.210;5.158;2023-04-05T04:16:58;102325.44;;;1.06;100.00
65329;BME280;51941;52.210;5.158;2023-04-05T04:19:51;102317.59;;;0.97;100.00
65329;BME280;51941;52.210;5.158;2023-04-05T04:22:41;102354.19;;;1.16;100.00
65329;BME280;51941;52.210;5.158;2023-04-05T04:25:27;102347.56;;;1.12;100.00
65329;BME280;51941;52.210;5.158;2023-04-05T04:28:24;102345.94;;;1.11;100.00
65329;BME280;51941;52.210;5.158;2023-04-05T04:31:11;102335.75;;;1.08;100.00
65329;BME280;51941;52.210;5.158;2023-04-05T04:33:59;102338.50;;;1.06;100.00
65329;BME280;51941;52.210;5.158;2023-04-05T04:36:40;102344.78;;;1.04;100.00
65329;BME280;51941;52.210;5.158;2023-04-05T04:39:31;102348.34;;;1.03;100.00
65329;BME280;51941;52.210;5.158;2023-04-05T04:42:17;102352.06;;;1.00;100.00
65329;BME280;51941;52.210;5.158;2023-04-05T04:45:07;102337.50;;;0.98;100.00
65329;BME280;51941;52.210;5.158;2023-04-05T04:48:07;102323.88;;;0.84;100.00
65329;BME280;51941;52.210;5.158;2023-04-05T04:50:40;102339.69;;;0.93;100.00
65329;BME280;51941;52.210;5.158;2023-04-05T04:53:07;102340.63;;;0.92;100.00
65329;BME280;51941;52.210;5.158;2023-04-05T04:55:34;102338.16;;;0.90;100.00
65329;BME280;51941;52.210;5.158;2023-04-05T04:58:01;102341.47;;;0.92;100.00
65329;BME280;51941;52.210;5.158;2023-04-05T05:00:34;102340.63;;;0.92;100.00
65329;BME280;51941;52.210;5.158;2023-04-05T05:03:01;102339.53;;;0.94;100.00
65329;BME280;51941;52.210;5.158;2023-04-05T05:05:28;102333.22;;;0.97;100.00
65329;BME280;51941;52.210;5.158;2023-04-05T05:07:56;102340.94;;;0.98;100.00
65329;BME280;51941;52.210;5.158;2023-04-05T05:10:23;102336.41;;;1.00;100.00
65329;BME280;51941;52.210;5.158;2023-04-05T05:12:50;102327.63;;;1.01;100.00
65329;BME280;51941;52.210;5.158;2023-04-05T05:15:18;102330.78;;;1.05;100.00
65329;BME280;51941;52.210;5.158;2023-04-05T05:17:45;102308.25;;;0.94;100.00
65329;BME280;51941;52.210;5.158;2023-04-05T05:20:11;102327.81;;;1.09;100.00
65329;BME280;51941;52.210;5.158;2023-04-05T05:22:43;102335.34;;;1.12;100.00
65329;BME280;51941;52.210;5.158;2023-04-05T05:25:12;102329.03;;;1.15;100.00
65329;BME280;51941;52.210;5.158;2023-04-05T05:27:38;102335.78;;;1.17;100.00
65329;BME280;51941;52.210;5.158;2023-04-05T05:30:06;102333.88;;;1.19;100.00
65329;BME280;51941;52.210;5.158;2023-04-05T05:32:33;102341.28;;;1.24;100.00
65329;BME280;51941;52.210;5.158;2023-04-05T05:35:00;102336.66;;;1.28;100.00
65329;BME280;51941;52.210;5.158;2023-04-05T05:37:28;102333.09;;;1.29;100.00
65329;BME280;51941;52.210;5.158;2023-04-05T05:39:56;102335.16;;;1.35;100.00
65329;BME280;51941;52.210;5.158;2023-04-05T05:42:24;102343.25;;;1.41;100.00
65329;BME280;51941;52.210;5.158;2023-04-05T05:44:51;102323.78;;;1.45;100.00
65329;BME280;51941;52.210;5.158;2023-04-05T05:47:18;102330.38;;;1.59;100.00
65329;BME280;51941;52.210;5.158;2023-04-05T05:49:44;102334.38;;;1.63;100.00
65329;BME280;51941;52.210;5.158;2023-04-05T05:52:13;102336.72;;;1.66;100.00
65329;BME280;51941;52.210;5.158;2023-04-05T05:54:40;102338.94;;;1.71;100.00
65329;BME280;51941;52.210;5.158;2023-04-05T05:57:07;102340.16;;;1.76;100.00
65329;BME280;51941;52.210;5.158;2023-04-05T05:59:35;102341.13;;;1.75;100.00
65329;BME280;51941;52.210;5.158;2023-04-05T06:02:01;102338.38;;;1.86;100.00
65329;BME280;51941;52.210;5.158;2023-04-05T06:04:28;102338.66;;;1.93;100.00
65329;BME280;51941;52.210;5.158;2023-04-05T06:06:55;102338.25;;;1.97;100.00
65329;BME280;51941;52.210;5.158;2023-04-05T06:09:22;102341.13;;;2.04;100.00
65329;BME280;51941;52.210;5.158;2023-04-05T06:11:50;102347.44;;;2.11;100.00
65329;BME280;51941;52.210;5.158;2023-04-05T06:14:17;102340.44;;;2.12;100.00
65329;BME280;51941;52.210;5.158;2023-04-05T06:16:45;102351.59;;;2.23;100.00
65329;BME280;51941;52.210;5.158;2023-04-05T06:19:12;102335.78;;;2.25;100.00
65329;BME280;51941;52.210;5.158;2023-04-05T06:21:39;102320.63;;;2.28;100.00
65329;BME280;51941;52.210;5.158;2023-04-05T06:24:06;102349.00;;;2.70;100.00
65329;BME280;51941;52.210;5.158;2023-04-05T06:26:32;102337.00;;;3.41;100.00
65329;BME280;51941;52.210;5.158;2023-04-05T06:28:59;102335.00;;;4.24;98.47
65329;BME280;51941;52.210;5.158;2023-04-05T06:31:29;102338.31;;;5.03;93.27
65329;BME280;51941;52.210;5.158;2023-04-05T06:33:57;102333.44;;;5.75;87.47
65329;BME280;51941;52.210;5.158;2023-04-05T06:36:24;102326.19;;;6.42;82.74
65329;BME280;51941;52.210;5.158;2023-04-05T06:38:51;102292.44;;;6.70;77.58
65329;BME280;51941;52.210;5.158;2023-04-05T06:41:18;102333.97;;;7.38;72.95
65329;BME280;51941;52.210;5.158;2023-04-05T06:43:44;102316.78;;;7.50;69.35
65329;BME280;51941;52.210;5.158;2023-04-05T06:46:11;102328.09;;;7.81;66.97
65329;BME280;51941;52.210;5.158;2023-04-05T06:48:38;102332.56;;;8.03;65.19
65329;BME280;51941;52.210;5.158;2023-04-05T06:51:07;102306.38;;;8.17;62.52
65329;BME280;51941;52.210;5.158;2023-04-05T06:53:34;102329.84;;;8.64;61.26
65329;BME280;51941;52.210;5.158;2023-04-05T06:56:01;102329.47;;;8.96;59.08
65329;BME280;51941;52.210;5.158;2023-04-05T06:58:28;102329.00;;;9.22;57.39
65329;BME280;51941;52.210;5.158;2023-04-05T07:00:55;102315.56;;;9.38;55.51
65329;BME280;51941;52.210;5.158;2023-04-05T07:03:21;102298.41;;;9.49;54.14
65329;BME280;51941;52.210;5.158;2023-04-05T07:05:49;102339.03;;;9.84;52.82
65329;BME280;51941;52.210;5.158;2023-04-05T07:08:18;102331.47;;;10.02;51.31
65329;BME280;51941;52.210;5.158;2023-04-05T07:10:45;102328.69;;;10.10;50.61
65329;BME280;51941;52.210;5.158;2023-04-05T07:13:12;102331.06;;;10.26;49.81
65329;BME280;51941;52.210;5.158;2023-04-05T07:15:39;102327.94;;;10.44;49.17
65329;BME280;51941;52.210;5.158;2023-04-05T07:18:06;102332.31;;;10.58;48.32
65329;BME280;51941;52.210;5.158;2023-04-05T07:20:32;102290.47;;;10.41;47.41
65329;BME280;51941;52.210;5.158;2023-04-05T07:22:59;102324.56;;;10.85;47.35
65329;BME280;51941;52.210;5.158;2023-04-05T07:25:27;102324.59;;;10.91;47.31
65329;BME280;51941;52.210;5.158;2023-04-05T07:27:54;102331.44;;;11.14;46.76
65329;BME280;51941;52.210;5.158;2023-04-05T07:30:21;102322.94;;;11.38;46.30
65329;BME280;51941;52.210;5.158;2023-04-05T07:32:48;102325.63;;;11.58;45.66
65329;BME280;51941;52.210;5.158;2023-04-05T07:35:15;102321.16;;;11.58;44.84
65329;BME280;51941;52.210;5.158;2023-04-05T07:37:41;102318.72;;;11.63;45.08
65329;BME280;51941;52.210;5.158;2023-04-05T07:40:08;102323.84;;;11.71;44.30
65329;BME280;51941;52.210;5.158;2023-04-05T07:42:38;102298.09;;;11.59;44.34
65329;BME280;51941;52.210;5.158;2023-04-05T07:45:06;102318.34;;;11.86;43.60
65329;BME280;51941;52.210;5.158;2023-04-05T07:47:33;102312.88;;;12.01;43.32
65329;BME280;51941;52.210;5.158;2023-04-05T07:50:00;102299.38;;;12.09;42.43
65329;BME280;51941;52.210;5.158;2023-04-05T07:52:26;102315.53;;;12.21;42.18
65329;BME280;51941;52.210;5.158;2023-04-05T07:54:54;102315.75;;;12.19;41.78
65329;BME280;51941;52.210;5.158;2023-04-05T07:57:21;102297.38;;;12.17;41.85
65329;BME280;51941;52.210;5.158;2023-04-05T07:59:49;102312.84;;;12.40;41.24
65329;BME280;51941;52.210;5.158;2023-04-05T08:02:17;102320.63;;;12.42;41.23
65329;BME280;51941;52.210;5.158;2023-04-05T08:04:44;102273.84;;;12.41;41.19
65329;BME280;51941;52.210;5.158;2023-04-05T08:07:11;102316.28;;;12.67;39.98
65329;BME280;51941;52.210;5.158;2023-04-05T08:09:38;102314.81;;;12.78;40.42
65329;BME280;51941;52.210;5.158;2023-04-05T08:12:05;102312.78;;;12.80;39.64
65329;BME280;51941;52.210;5.158;2023-04-05T08:14:32;102310.72;;;12.82;39.15
65329;BME280;51941;52.210;5.158;2023-04-05T08:17:00;102310.88;;;12.93;39.14
65329;BME280;51941;52.210;5.158;2023-04-05T08:19:27;102303.34;;;12.84;38.22
65329;BME280;51941;52.210;5.158;2023-04-05T08:21:53;102308.22;;;12.93;38.41
65329;BME280;51941;52.210;5.158;2023-04-05T08:24:20;102309.31;;;12.79;38.29
65329;BME280;51941;52.210;5.158;2023-04-05T08:26:46;102299.72;;;12.65;38.02
65329;BME280;51941;52.210;5.158;2023-04-05T08:29:13;102305.31;;;12.44;37.92
65329;BME280;51941;52.210;5.158;2023-04-05T08:31:40;102304.09;;;12.13;37.70
65329;BME280;51941;52.210;5.158;2023-04-05T08:34:08;102297.94;;;11.93;37.94
65329;BME280;51941;52.210;5.158;2023-04-05T08:36:34;102297.53;;;11.83;38.22
65329;BME280;51941;52.210;5.158;2023-04-05T08:39:01;102296.91;;;11.74;36.78
65329;BME280;51941;52.210;5.158;2023-04-05T08:41:34;102302.63;;;11.71;36.37
65329;BME280;51941;52.210;5.158;2023-04-05T08:44:02;102293.22;;;11.62;36.29
65329;BME280;51941;52.210;5.158;2023-04-05T08:46:31;102296.47;;;11.51;36.63
65329;BME280;51941;52.210;5.158;2023-04-05T08:48:58;102250.94;;;11.28;36.14
65329;BME280;51941;52.210;5.158;2023-04-05T08:51:27;102286.28;;;11.55;36.10
65329;BME280;51941;52.210;5.158;2023-04-05T08:53:54;102274.34;;;11.18;35.88
65329;BME280;51941;52.210;5.158;2023-04-05T08:56:24;102283.38;;;11.30;36.36
65329;BME280;51941;52.210;5.158;2023-04-05T08:58:56;102287.41;;;11.19;36.42
65329;BME280;51941;52.210;5.158;2023-04-05T09:01:26;102290.69;;;11.28;36.34
65329;BME280;51941;52.210;5.158;2023-04-05T09:03:56;102288.25;;;11.33;36.55
65329;BME280;51941;52.210;5.158;2023-04-05T09:06:24;102277.88;;;11.38;36.20
65329;BME280;51941;52.210;5.158;2023-04-05T09:08:55;102283.19;;;11.38;36.70
65329;BME280;51941;52.210;5.158;2023-04-05T09:11:22;102275.88;;;11.47;36.94
65329;BME280;51941;52.210;5.158;2023-04-05T09:13:49;102283.00;;;11.53;36.72
65329;BME280;51941;52.210;5.158;2023-04-05T09:16:16;102280.53;;;11.51;36.48
65329;BME280;51941;52.210;5.158;2023-04-05T09:18:42;102281.16;;;11.53;36.72
65329;BME280;51941;52.210;5.158;2023-04-05T09:21:09;102278.91;;;11.50;36.41
65329;BME280;51941;52.210;5.158;2023-04-05T09:23:36;102279.28;;;11.40;36.13
65329;BME280;51941;52.210;5.158;2023-04-05T09:26:17;102271.34;;;11.34;36.25
65329;BME280;51941;52.210;5.158;2023-04-05T09:28:47;102271.75;;;11.37;36.70
65329;BME280;51941;52.210;5.158;2023-04-05T09:31:31;102272.97;;;11.41;36.53
65329;BME280;51941;52.210;5.158;2023-04-05T09:33:59;102270.13;;;11.36;36.56
65329;BME280;51941;52.210;5.158;2023-04-05T09:36:26;102270.75;;;11.38;36.27
65329;BME280;51941;52.210;5.158;2023-04-05T09:39:03;102271.97;;;11.42;36.55
65329;BME280;51941;52.210;5.158;2023-04-05T09:41:31;102263.00;;;11.43;36.39
65329;BME280;51941;52.210;5.158;2023-04-05T09:43:59;102235.22;;;11.26;36.42
65329;BME280;51941;52.210;5.158;2023-04-05T09:46:30;102266.28;;;11.46;36.75
65329;BME280;51941;52.210;5.158;2023-04-05T09:48:58;102266.03;;;11.40;36.46
65329;BME280;51941;52.210;5.158;2023-04-05T09:51:32;102267.25;;;11.31;36.03
65329;BME280;51941;52.210;5.158;2023-04-05T09:54:00;102245.19;;;11.18;36.72
65329;BME280;51941;52.210;5.158;2023-04-05T09:56:28;102259.94;;;11.40;37.03
65329;BME280;51941;52.210;5.158;2023-04-05T09:59:00;102244.19;;;11.32;36.72
65329;BME280;51941;52.210;5.158;2023-04-05T10:01:29;102264.88;;;11.56;36.85
65329;BME280;51941;52.210;5.158;2023-04-05T10:03:57;102255.91;;;11.57;36.31
65329;BME280;51941;52.210;5.158;2023-04-05T10:06:34;102258.94;;;11.67;36.47
65329;BME280;51941;52.210;5.158;2023-04-05T10:09:01;102251.19;;;11.53;36.95
65329;BME280;51941;52.210;5.158;2023-04-05T10:11:29;102233.00;;;11.30;36.31
65329;BME280;51941;52.210;5.158;2023-04-05T10:13:56;102252.00;;;11.47;36.66
65329;BME280;51941;52.210;5.158;2023-04-05T10:16:28;102239.31;;;11.35;36.47
65329;BME280;51941;52.210;5.158;2023-04-05T10:18:55;102245.06;;;11.39;36.42
65329;BME280;51941;52.210;5.158;2023-04-05T10:21:25;102216.69;;;11.33;36.70
65329;BME280;51941;52.210;5.158;2023-04-05T10:24:00;102233.63;;;11.52;36.75
65329;BME280;51941;52.210;5.158;2023-04-05T10:26:36;102229.16;;;11.52;36.74
65329;BME280;51941;52.210;5.158;2023-04-05T10:29:08;102234.84;;;11.49;36.91
65329;BME280;51941;52.210;5.158;2023-04-05T10:31:49;102225.91;;;11.57;36.30
65329;BME280;51941;52.210;5.158;2023-04-05T10:34:26;102225.69;;;11.58;36.26
65329;BME280;51941;52.210;5.158;2023-04-05T10:36:57;102194.06;;;11.30;36.28
65329;BME280;51941;52.210;5.158;2023-04-05T10:39:26;102217.72;;;11.52;36.39
65329;BME280;51941;52.210;5.158;2023-04-05T10:41:59;102217.34;;;11.55;36.51
65329;BME280;51941;52.210;5.158;2023-04-05T10:44:27;102222.22;;;11.58;36.04
65329;BME280;51941;52.210;5.158;2023-04-05T10:46:57;102215.28;;;11.70;36.55
65329;BME280;51941;52.210;5.158;2023-04-05T10:49:32;102217.13;;;11.69;36.15
65329;BME280;51941;52.210;5.158;2023-04-05T10:52:02;102217.75;;;11.71;36.01
65329;BME280;51941;52.210;5.158;2023-04-05T10:54:31;102209.16;;;11.69;35.68
65329;BME280;51941;52.210;5.158;2023-04-05T10:56:58;102211.63;;;11.71;36.06
65329;BME280;51941;52.210;5.158;2023-04-05T10:59:27;102202.00;;;11.76;36.38
65329;BME280;51941;52.210;5.158;2023-04-05T11:01:54;102204.06;;;11.81;36.41
65329;BME280;51941;52.210;5.158;2023-04-05T11:04:23;102208.53;;;11.94;36.78
65329;BME280;51941;52.210;5.158;2023-04-05T11:07:11;102172.22;;;11.81;35.91
65329;BME280;51941;52.210;5.158;2023-04-05T11:09:49;102200.81;;;11.92;36.67
65329;BME280;51941;52.210;5.158;2023-04-05T11:12:16;102194.25;;;12.01;36.82
65329;BME280;51941;52.210;5.158;2023-04-05T11:14:43;102193.81;;;12.04;36.50
65329;BME280;51941;52.210;5.158;2023-04-05T11:17:23;102162.63;;;11.80;35.87
65329;BME280;51941;52.210;5.158;2023-04-05T11:20:01;102188.13;;;11.88;36.36
65329;BME280;51941;52.210;5.158;2023-04-05T11:22:28;102188.53;;;11.98;36.56
65329;BME280;51941;52.210;5.158;2023-04-05T11:24:56;102190.59;;;11.82;36.83
65329;BME280;51941;52.210;5.158;2023-04-05T11:27:24;102187.09;;;12.02;37.06
65329;BME280;51941;52.210;5.158;2023-04-05T11:29:52;102186.69;;;12.05;36.75
65329;BME280;51941;52.210;5.158;2023-04-05T11:32:20;102163.22;;;11.95;36.76
65329;BME280;51941;52.210;5.158;2023-04-05T11:34:58;102174.44;;;12.17;37.35
65329;BME280;51941;52.210;5.158;2023-04-05T11:37:53;102175.22;;;12.31;37.30
65329;BME280;51941;52.210;5.158;2023-04-05T11:40:25;102157.41;;;12.38;37.87
65329;BME280;51941;52.210;5.158;2023-04-05T11:42:58;102155.94;;;12.48;37.20
65329;BME280;51941;52.210;5.158;2023-04-05T11:45:25;102157.91;;;12.66;37.27
65329;BME280;51941;52.210;5.158;2023-04-05T11:47:52;102170.69;;;12.89;37.27
65329;BME280;51941;52.210;5.158;2023-04-05T11:50:20;102166.38;;;12.88;36.57
65329;BME280;51941;52.210;5.158;2023-04-05T11:53:09;102158.78;;;12.91;36.76
65329;BME280;51941;52.210;5.158;2023-04-05T11:55:36;102155.50;;;12.96;36.77
65329;BME280;51941;52.210;5.158;2023-04-05T11:58:10;102149.09;;;13.04;36.97
65329;BME280;51941;52.210;5.158;2023-04-05T12:00:37;102155.84;;;13.06;36.57
65329;BME280;51941;52.210;5.158;2023-04-05T12:03:04;102152.13;;;13.14;36.67
65329;BME280;51941;52.210;5.158;2023-04-05T12:05:45;102140.66;;;13.13;35.96
65329;BME280;51941;52.210;5.158;2023-04-05T12:08:12;102127.03;;;13.03;35.84
65329;BME280;51941;52.210;5.158;2023-04-05T12:10:39;102124.69;;;12.88;36.04
65329;BME280;51941;52.210;5.158;2023-04-05T12:13:05;102145.09;;;12.94;35.77
65329;BME280;51941;52.210;5.158;2023-04-05T12:15:36;102118.50;;;12.94;36.30
65329;BME280;51941;52.210;5.158;2023-04-05T12:18:02;102135.56;;;13.12;35.95
65329;BME280;51941;52.210;5.158;2023-04-05T12:20:29;102105.16;;;13.01;35.66
65329;BME280;51941;52.210;5.158;2023-04-05T12:22:59;102130.09;;;13.00;36.05
65329;BME280;51941;52.210;5.158;2023-04-05T12:25:27;102125.94;;;13.11;36.09
65329;BME280;51941;52.210;5.158;2023-04-05T12:27:54;102130.25;;;13.12;35.91
65329;BME280;51941;52.210;5.158;2023-04-05T12:30:22;102123.47;;;13.16;36.22
65329;BME280;51941;52.210;5.158;2023-04-05T12:32:50;102128.28;;;13.25;35.85
65329;BME280;51941;52.210;5.158;2023-04-05T12:35:19;102122.31;;;13.30;36.06
65329;BME280;51941;52.210;5.158;2023-04-05T12:37:47;102104.34;;;13.25;36.05
65329;BME280;51941;52.210;5.158;2023-04-05T12:40:20;102118.78;;;13.36;35.98
65329;BME280;51941;52.210;5.158;2023-04-05T12:42:47;102113.00;;;13.46;36.32
65329;BME280;51941;52.210;5.158;2023-04-05T12:45:14;102117.31;;;13.47;36.26
65329;BME280;51941;52.210;5.158;2023-04-05T12:47:49;102089.00;;;13.27;35.70
65329;BME280;51941;52.210;5.158;2023-04-05T12:50:18;102117.16;;;13.35;36.08
65329;BME280;51941;52.210;5.158;2023-04-05T12:52:52;102115.38;;;13.29;35.47
65329;BME280;51941;52.210;5.158;2023-04-05T12:55:21;102102.97;;;13.23;34.82
65329;BME280;51941;52.210;5.158;2023-04-05T12:57:49;102102.50;;;13.01;34.88
65329;BME280;51941;52.210;5.158;2023-04-05T13:00:20;102080.69;;;12.92;34.55
65329;BME280;51941;52.210;5.158;2023-04-05T13:02:51;102101.13;;;12.92;34.45
65329;BME280;51941;52.210;5.158;2023-04-05T13:05:21;102096.63;;;12.92;35.25
65329;BME280;51941;52.210;5.158;2023-04-05T13:07:49;102108.13;;;12.86;34.67